createdAt,value
2018-07-31T00:01:12.804Z,96.30
2018-07-31T00:03:40.443Z,96.10
2018-07-31T00:06:12.184Z,96.90
2018-07-31T00:08:39.819Z,97.00
2018-07-31T00:11:07.439Z,96.80
2018-07-31T00:13:35.004Z,96.40
2018-07-31T00:16:02.547Z,96.80
2018-07-31T00:18:30.130Z,95.70
2018-07-31T00:20:57.770Z,96.40
2018-07-31T00:23:25.338Z,96.50
2018-07-31T00:25:52.883Z,96.60
2018-07-31T00:28:20.426Z,96.70
2018-07-31T00:30:47.945Z,96.70
2018-07-31T00:33:15.504Z,97.00
2018-07-31T00:35:43.084Z,97.00
2018-07-31T00:38:10.612Z,96.50
2018-07-31T00:40:38.128Z,96.70
2018-07-31T00:43:05.675Z,96.80
2018-07-31T00:45:33.180Z,96.80
2018-07-31T00:48:00.743Z,96.90
2018-07-31T00:52:55.810Z,97.10
2018-07-31T00:55:23.350Z,96.80
2018-07-31T00:57:50.913Z,96.80
2018-07-31T01:00:18.465Z,96.50
2018-07-31T01:02:46.051Z,96.70
2018-07-31T01:05:13.612Z,96.60
2018-07-31T01:07:41.198Z,95.90
2018-07-31T01:10:08.793Z,94.50
2018-07-31T01:12:36.349Z,94.80
2018-07-31T01:15:04.223Z,95.10
2018-07-31T01:17:31.804Z,95.50
2018-07-31T01:19:59.331Z,95.80
2018-07-31T01:22:26.859Z,95.80
2018-07-31T01:24:54.438Z,95.30
2018-07-31T01:28:51.555Z,95.30
2018-07-31T01:31:19.139Z,94.70
2018-07-31T01:33:46.646Z,92.80
2018-07-31T01:38:41.732Z,91.80
2018-07-31T01:41:09.328Z,93.90
2018-07-31T01:43:36.881Z,95.40
2018-07-31T01:46:04.607Z,96.30
2018-07-31T01:48:32.105Z,96.50
2018-07-31T01:50:59.663Z,96.20
2018-07-31T01:53:27.283Z,95.90
2018-07-31T01:55:54.831Z,94.80
2018-07-31T01:58:22.376Z,92.40
2018-07-31T02:00:49.929Z,93.40
2018-07-31T02:03:17.472Z,94.30
2018-07-31T02:05:45.158Z,94.90
2018-07-31T02:10:40.275Z,95.50
2018-07-31T02:13:08.211Z,95.70
2018-07-31T02:15:35.804Z,95.50
2018-07-31T02:18:03.359Z,95.90
2018-07-31T02:20:30.892Z,94.90
2018-07-31T02:25:25.938Z,95.40
2018-07-31T02:27:53.526Z,94.40
2018-07-31T02:30:21.949Z,94.10
2018-07-31T02:32:50.505Z,93.10
2018-07-31T02:35:18.223Z,92.00
2018-07-31T02:37:45.743Z,93.10
2018-07-31T02:40:13.590Z,91.70
2018-07-31T02:42:41.214Z,93.40
2018-07-31T02:45:10.624Z,94.00
2018-07-31T02:47:38.170Z,94.10
2018-07-31T02:50:06.237Z,94.80
2018-07-31T02:52:33.896Z,95.40
2018-07-31T02:55:01.537Z,96.00
2018-07-31T02:57:29.136Z,95.80
2018-07-31T03:02:24.344Z,96.40
2018-07-31T03:04:51.936Z,96.00
2018-07-31T03:07:19.451Z,95.90
2018-07-31T03:09:47.024Z,95.70
2018-07-31T03:12:14.605Z,95.90
2018-07-31T03:14:42.167Z,96.50
2018-07-31T03:17:09.789Z,96.20
2018-07-31T03:19:37.319Z,96.40
2018-07-31T03:22:05.190Z,96.50
2018-07-31T03:24:32.904Z,96.10
2018-07-31T03:27:00.472Z,96.50
2018-07-31T03:29:28.015Z,96.40
2018-07-31T03:31:56.137Z,96.40
2018-07-31T03:34:24.207Z,96.80
2018-07-31T03:36:51.950Z,97.00
2018-07-31T03:39:19.527Z,96.80
2018-07-31T03:41:47.047Z,95.90
2018-07-31T03:44:14.636Z,95.40
2018-07-31T03:49:09.693Z,96.10
2018-07-31T03:51:37.177Z,96.20
2018-07-31T03:54:05.021Z,95.90
2018-07-31T03:56:32.591Z,95.90
2018-07-31T03:59:00.236Z,95.90
2018-07-31T04:01:27.794Z,95.70
2018-07-31T04:06:22.925Z,95.70
2018-07-31T04:11:17.971Z,95.70
2018-07-31T04:13:45.588Z,96.10
2018-07-31T04:16:13.121Z,96.80
2018-07-31T04:18:40.671Z,96.80
2018-07-31T04:21:08.292Z,96.40
2018-07-31T04:23:35.822Z,96.20
2018-07-31T04:26:03.389Z,95.90
2018-07-31T04:28:30.988Z,96.10
2018-07-31T04:30:58.683Z,96.80
2018-07-31T04:33:26.326Z,96.80
2018-07-31T04:35:54.428Z,96.80
2018-07-31T04:38:21.927Z,96.90
2018-07-31T04:40:49.452Z,96.70
2018-07-31T04:43:17.040Z,95.60
2018-07-31T04:45:44.784Z,95.50
2018-07-31T04:48:12.304Z,95.30
2018-07-31T04:50:40.011Z,95.30
2018-07-31T04:53:07.534Z,95.10
2018-07-31T04:55:35.013Z,94.60
2018-07-31T04:58:02.584Z,93.10
2018-07-31T05:00:30.166Z,93.50
2018-07-31T05:02:57.731Z,93.60
2018-07-31T05:05:25.338Z,94.10
2018-07-31T05:07:52.874Z,94.20
2018-07-31T05:10:20.451Z,94.40
2018-07-31T05:12:48.043Z,94.10
2018-07-31T05:15:15.616Z,94.80
2018-07-31T05:17:43.131Z,94.70
2018-07-31T05:20:10.837Z,94.30
2018-07-31T05:22:39.393Z,93.60
2018-07-31T05:25:07.125Z,93.40
2018-07-31T05:27:34.662Z,92.90
2018-07-31T05:30:02.313Z,92.30
2018-07-31T05:32:29.931Z,92.30
2018-07-31T05:34:57.650Z,92.20
2018-07-31T05:37:25.198Z,92.80
2018-07-31T05:39:52.791Z,92.60
2018-07-31T05:42:20.398Z,90.70
2018-07-31T05:44:47.881Z,88.90
2018-07-31T05:47:15.384Z,86.40
2018-07-31T05:52:10.461Z,84.50
2018-07-31T05:54:38.035Z,73.60
2018-07-31T05:57:05.552Z,70.30
2018-07-31T05:59:33.111Z,70.10
2018-07-31T06:02:00.640Z,73.10
2018-07-31T06:04:28.386Z,77.30
2018-07-31T06:06:55.971Z,83.80
2018-07-31T06:09:23.497Z,85.70
2018-07-31T06:11:51.100Z,86.40
2018-07-31T06:14:18.639Z,79.10
2018-07-31T06:16:46.128Z,83.40
2018-07-31T06:19:13.585Z,86.10
2018-07-31T06:21:41.143Z,87.60
2018-07-31T06:24:08.640Z,86.30
2018-07-31T06:26:36.733Z,86.50
2018-07-31T06:31:31.941Z,83.30
2018-07-31T06:33:59.511Z,85.50
2018-07-31T06:36:27.133Z,86.10
2018-07-31T06:41:22.211Z,86.50
2018-07-31T06:43:49.748Z,87.10
2018-07-31T06:46:17.271Z,79.80
2018-07-31T06:48:44.823Z,77.80
2018-07-31T06:51:12.676Z,80.20
2018-07-31T06:53:40.231Z,80.30
2018-07-31T06:56:08.048Z,82.50
2018-07-31T06:58:35.583Z,79.60
2018-07-31T07:01:03.093Z,72.80
2018-07-31T07:03:30.704Z,67.00
2018-07-31T07:05:58.291Z,67.30
2018-07-31T07:08:25.919Z,73.50
2018-07-31T07:10:53.475Z,78.20
2018-07-31T07:13:21.095Z,87.20
2018-07-31T07:18:17.101Z,80.90
2018-07-31T07:20:44.690Z,73.80
2018-07-31T07:23:12.335Z,78.80
2018-07-31T07:25:39.934Z,79.90
2018-07-31T07:28:07.441Z,80.60
2018-07-31T07:30:35.040Z,74.90
2018-07-31T07:33:02.521Z,72.30
2018-07-31T07:35:30.079Z,59.80
2018-07-31T07:37:57.794Z,55.00
2018-07-31T07:40:25.364Z,54.20
2018-07-31T07:42:52.928Z,53.30
2018-07-31T07:45:20.605Z,50.10
2018-07-31T07:47:48.163Z,49.80
2018-07-31T07:50:15.706Z,52.90
2018-07-31T07:52:43.351Z,51.90
2018-07-31T07:55:10.930Z,51.30
2018-07-31T07:57:38.438Z,51.00
2018-07-31T08:00:07.595Z,49.90
2018-07-31T08:02:35.543Z,49.60
2018-07-31T08:05:03.124Z,48.40
2018-07-31T08:07:30.684Z,49.50
2018-07-31T08:09:58.241Z,50.50
2018-07-31T08:12:25.803Z,48.40
2018-07-31T08:14:53.447Z,48.30
2018-07-31T08:17:20.933Z,47.50
2018-07-31T08:19:48.527Z,46.90
2018-07-31T08:22:16.051Z,50.00
2018-07-31T08:24:43.604Z,48.50
2018-07-31T08:27:11.164Z,47.30
2018-07-31T08:29:38.673Z,47.40
2018-07-31T08:32:06.236Z,50.30
2018-07-31T08:34:33.834Z,49.10
2018-07-31T08:37:01.350Z,47.80
2018-07-31T08:39:28.844Z,47.40
2018-07-31T08:41:56.336Z,48.80
2018-07-31T08:44:23.867Z,53.00
2018-07-31T08:49:18.952Z,53.30
2018-07-31T08:51:46.506Z,50.70
2018-07-31T08:54:14.019Z,48.80
2018-07-31T08:56:41.541Z,52.10
2018-07-31T08:59:09.030Z,54.30
2018-07-31T09:01:36.567Z,54.70
2018-07-31T09:04:04.084Z,56.50
2018-07-31T09:06:31.615Z,57.80
2018-07-31T09:08:59.199Z,56.70
2018-07-31T09:11:26.654Z,57.30
2018-07-31T09:13:54.210Z,57.80
2018-07-31T09:16:21.746Z,59.70
2018-07-31T09:18:49.330Z,59.50
2018-07-31T09:21:16.836Z,59.60
2018-07-31T09:23:44.522Z,62.50
2018-07-31T09:26:12.055Z,64.30
2018-07-31T09:28:39.641Z,66.50
2018-07-31T09:31:12.918Z,66.30
2018-07-31T09:33:40.945Z,66.90
2018-07-31T09:36:08.555Z,67.60
2018-07-31T09:38:36.092Z,68.40
2018-07-31T09:41:03.643Z,69.30
2018-07-31T09:43:31.209Z,65.80
2018-07-31T09:45:58.749Z,59.90
2018-07-31T09:48:26.320Z,59.80
2018-07-31T09:50:54.058Z,61.00
2018-07-31T09:53:21.586Z,63.40
2018-07-31T09:55:49.192Z,65.70
2018-07-31T09:58:16.781Z,66.10
2018-07-31T10:00:50.104Z,65.90
2018-07-31T10:03:17.681Z,64.40
2018-07-31T10:05:45.245Z,62.40
2018-07-31T10:08:17.323Z,61.30
2018-07-31T10:10:44.889Z,58.60
2018-07-31T10:13:12.448Z,59.30
2018-07-31T10:15:40.024Z,61.30
2018-07-31T10:18:07.682Z,62.30
2018-07-31T10:23:17.151Z,60.50
2018-07-31T10:25:44.716Z,61.80
2018-07-31T10:28:12.251Z,60.40
2018-07-31T10:30:39.882Z,58.80
2018-07-31T10:33:07.375Z,58.30
2018-07-31T10:35:34.880Z,58.50
2018-07-31T10:38:02.450Z,60.00
2018-07-31T10:40:30.010Z,60.20
2018-07-31T10:42:57.654Z,60.90
2018-07-31T10:45:25.246Z,59.80
2018-07-31T10:47:52.814Z,59.70
2018-07-31T10:50:20.413Z,59.80
2018-07-31T10:55:15.573Z,61.60
2018-07-31T10:57:43.171Z,59.90
2018-07-31T11:00:10.740Z,59.60
2018-07-31T11:02:38.941Z,61.60
2018-07-31T11:05:06.608Z,58.50
2018-07-31T11:07:34.172Z,60.50
2018-07-31T11:10:01.815Z,58.10
2018-07-31T11:12:29.661Z,58.60
2018-07-31T11:14:57.384Z,59.50
2018-07-31T11:17:24.987Z,60.30
2018-07-31T11:22:20.271Z,57.70
2018-07-31T11:24:47.839Z,59.80
2018-07-31T11:27:15.489Z,58.20
2018-07-31T11:29:43.049Z,59.00
2018-07-31T11:32:10.612Z,60.30
2018-07-31T11:34:38.173Z,59.00
2018-07-31T11:37:05.758Z,57.80
2018-07-31T11:39:33.346Z,58.70
2018-07-31T11:42:00.920Z,57.50
2018-07-31T11:44:28.511Z,57.80
2018-07-31T11:46:56.132Z,56.70
2018-07-31T11:49:23.686Z,58.10
2018-07-31T11:51:51.263Z,56.60
2018-07-31T11:54:18.825Z,58.60
2018-07-31T11:56:46.468Z,55.20
2018-07-31T11:59:14.035Z,59.00
2018-07-31T12:01:41.672Z,56.90
2018-07-31T12:04:09.336Z,55.30
2018-07-31T12:06:37.206Z,53.60
2018-07-31T12:11:33.652Z,55.80
2018-07-31T12:16:28.786Z,52.80
2018-07-31T12:21:23.872Z,54.80
2018-07-31T12:23:51.380Z,54.60
2018-07-31T12:28:46.493Z,54.40
2018-07-31T12:31:14.057Z,54.80
2018-07-31T12:33:41.603Z,52.80
2018-07-31T12:36:09.155Z,55.50
2018-07-31T12:38:36.778Z,50.70
2018-07-31T12:41:04.350Z,52.40
2018-07-31T12:43:31.919Z,54.70
2018-07-31T12:45:59.527Z,52.10
2018-07-31T12:48:27.121Z,51.10
2018-07-31T12:53:22.358Z,53.30
2018-07-31T12:55:49.900Z,54.70
2018-07-31T12:58:17.771Z,54.00
2018-07-31T13:00:45.308Z,53.30
2018-07-31T13:03:12.833Z,55.90
2018-07-31T13:05:40.357Z,55.40
2018-07-31T13:08:07.983Z,54.20
2018-07-31T13:10:35.618Z,54.10
2018-07-31T13:13:03.220Z,54.30
2018-07-31T13:15:30.805Z,56.20
2018-07-31T13:17:58.375Z,57.70
2018-07-31T13:20:25.953Z,56.70
2018-07-31T13:22:53.548Z,56.00
2018-07-31T13:25:21.144Z,54.50
2018-07-31T13:27:49.427Z,52.20
2018-07-31T13:30:16.989Z,55.70
2018-07-31T13:32:44.497Z,53.70
2018-07-31T13:35:12.375Z,52.10
2018-07-31T13:37:40.190Z,54.60
2018-07-31T13:40:08.026Z,51.90
2018-07-31T13:42:35.756Z,53.50
2018-07-31T13:45:03.330Z,51.30
2018-07-31T13:49:58.517Z,52.50
2018-07-31T13:52:26.112Z,49.60
2018-07-31T13:54:53.699Z,51.80
2018-07-31T13:57:21.262Z,49.40
2018-07-31T14:02:16.389Z,52.00
2018-07-31T14:04:44.011Z,49.40
2018-07-31T14:07:11.615Z,48.40
2018-07-31T14:09:39.782Z,50.50
2018-07-31T14:12:07.384Z,49.20
2018-07-31T14:14:34.984Z,51.30
2018-07-31T14:17:02.600Z,54.30
2018-07-31T14:19:30.194Z,51.30
2018-07-31T14:26:52.960Z,51.80
2018-07-31T14:29:20.576Z,52.80
2018-07-31T14:31:48.275Z,53.40
2018-07-31T14:34:15.993Z,53.90
2018-07-31T14:36:43.629Z,51.30
2018-07-31T14:39:17.160Z,49.10
2018-07-31T14:41:44.820Z,50.30
2018-07-31T14:44:12.470Z,52.20
2018-07-31T14:46:40.092Z,51.00
2018-07-31T14:49:07.771Z,49.90
2018-07-31T14:51:35.308Z,50.70
2018-07-31T14:54:02.987Z,49.50
2018-07-31T14:56:30.505Z,53.40
2018-07-31T14:58:58.099Z,50.80
2018-07-31T15:01:25.659Z,51.30
2018-07-31T15:03:53.408Z,50.10
2018-07-31T15:08:48.503Z,50.30
2018-07-31T15:11:16.216Z,53.10
2018-07-31T15:13:43.693Z,50.20
2018-07-31T15:16:11.254Z,49.70
2018-07-31T15:18:38.787Z,51.00
2018-07-31T15:21:06.403Z,50.40
2018-07-31T15:23:34.031Z,56.50
2018-07-31T15:26:01.532Z,51.40
2018-07-31T15:28:29.061Z,50.70
2018-07-31T15:30:56.683Z,51.60
2018-07-31T15:33:24.379Z,53.70
2018-07-31T15:35:51.899Z,55.70
2018-07-31T15:38:19.450Z,54.20
2018-07-31T15:40:46.985Z,51.00
2018-07-31T15:43:14.495Z,54.10
2018-07-31T15:45:42.044Z,51.40
2018-07-31T15:48:09.679Z,55.30
2018-07-31T15:50:37.188Z,52.40
2018-07-31T15:53:04.754Z,51.70
2018-07-31T15:55:32.804Z,53.00
2018-07-31T15:58:00.340Z,51.90
2018-07-31T16:02:55.467Z,51.60
2018-07-31T16:05:23.123Z,47.40
2018-07-31T16:10:18.343Z,53.60
2018-07-31T16:12:45.922Z,50.30
2018-07-31T16:17:40.960Z,49.30
2018-07-31T16:22:35.923Z,49.50
2018-07-31T16:25:03.503Z,52.80
2018-07-31T16:27:31.026Z,50.00
2018-07-31T16:32:26.048Z,50.30
2018-07-31T16:34:53.530Z,51.50
2018-07-31T16:37:21.034Z,51.70
2018-07-31T16:39:48.644Z,52.80
2018-07-31T16:42:16.178Z,54.20
2018-07-31T16:44:43.749Z,53.60
2018-07-31T16:49:38.805Z,54.70
2018-07-31T16:52:06.364Z,53.50
2018-07-31T16:54:34.076Z,51.60
2018-07-31T16:57:01.793Z,53.20
2018-07-31T16:59:29.262Z,51.00
2018-07-31T17:01:56.805Z,54.70
2018-07-31T17:04:24.335Z,53.70
2018-07-31T17:06:51.868Z,54.10
2018-07-31T17:09:19.444Z,54.30
2018-07-31T17:11:47.064Z,55.10
2018-07-31T17:14:14.631Z,54.20
2018-07-31T17:16:42.181Z,54.70
2018-07-31T17:19:09.700Z,55.60
2018-07-31T17:21:37.236Z,55.50
2018-07-31T17:24:04.767Z,56.30
2018-07-31T17:26:32.420Z,55.10
2018-07-31T17:31:27.949Z,55.40
2018-07-31T17:33:55.483Z,57.00
2018-07-31T17:36:22.993Z,57.50
2018-07-31T17:38:50.624Z,52.50
2018-07-31T17:41:18.249Z,51.90
2018-07-31T17:43:45.839Z,49.90
2018-07-31T17:46:13.608Z,49.60
2018-07-31T17:48:41.236Z,48.80
2018-07-31T17:51:08.902Z,49.40
2018-07-31T17:53:36.534Z,49.70
2018-07-31T17:56:04.175Z,50.00
2018-07-31T17:58:31.762Z,51.40
2018-07-31T18:00:59.405Z,51.30
2018-07-31T18:03:27.095Z,51.70
2018-07-31T18:05:54.784Z,52.10
2018-07-31T18:08:22.356Z,53.50
2018-07-31T18:10:50.165Z,52.00
2018-07-31T18:13:17.732Z,51.20
2018-07-31T18:15:45.306Z,50.50
2018-07-31T18:18:12.870Z,53.40
2018-07-31T18:20:40.484Z,51.80
2018-07-31T18:23:08.027Z,51.40
2018-07-31T18:25:35.501Z,48.50
2018-07-31T18:28:03.070Z,53.40
2018-07-31T18:30:30.617Z,52.90
2018-07-31T18:32:58.146Z,52.60
2018-07-31T18:37:53.410Z,55.10
2018-07-31T18:40:21.005Z,56.50
2018-07-31T18:42:48.536Z,56.40
2018-07-31T18:45:16.079Z,54.90
2018-07-31T18:47:43.654Z,53.50
2018-07-31T18:50:11.226Z,56.80
2018-07-31T18:52:38.712Z,54.60
2018-07-31T18:55:06.235Z,55.50
2018-07-31T18:57:33.735Z,57.50
2018-07-31T19:00:01.243Z,58.20
2018-07-31T19:04:56.315Z,55.50
2018-07-31T19:07:23.839Z,55.70
2018-07-31T19:09:51.380Z,52.70
2018-07-31T19:12:18.867Z,53.80
2018-07-31T19:14:46.496Z,57.00
2018-07-31T19:17:14.119Z,57.40
2018-07-31T19:19:41.688Z,59.40
2018-07-31T19:22:09.205Z,59.20
2018-07-31T19:24:36.843Z,61.80
2018-07-31T19:27:04.410Z,63.70
2018-07-31T19:29:31.976Z,61.30
2018-07-31T19:31:59.482Z,63.60
2018-07-31T19:36:54.745Z,61.30
2018-07-31T19:39:22.251Z,63.90
2018-07-31T19:41:49.825Z,65.70
2018-07-31T19:44:17.364Z,66.90
2018-07-31T19:46:44.963Z,65.10
2018-07-31T19:49:12.498Z,69.00
2018-07-31T19:51:40.013Z,70.70
2018-07-31T19:54:07.584Z,72.20
2018-07-31T19:56:35.126Z,73.20
2018-07-31T19:59:02.670Z,73.50
2018-07-31T20:01:30.227Z,75.00
2018-07-31T20:03:57.863Z,76.00
2018-07-31T20:06:25.510Z,77.20
2018-07-31T20:08:53.142Z,78.60
2018-07-31T20:13:48.632Z,80.30
2018-07-31T20:17:45.823Z,80.00
2018-07-31T20:20:13.492Z,79.70
2018-07-31T20:22:41.122Z,79.60
2018-07-31T20:25:08.680Z,80.30
2018-07-31T20:27:36.423Z,81.40
2018-07-31T20:30:05.363Z,82.70
2018-07-31T20:35:00.493Z,82.00
2018-07-31T20:39:55.492Z,78.10
2018-07-31T20:42:23.009Z,80.70
2018-07-31T20:44:50.553Z,82.10
2018-07-31T20:49:45.562Z,79.80
2018-07-31T20:52:13.105Z,79.90
2018-07-31T20:54:40.770Z,80.30
2018-07-31T20:57:08.406Z,82.80
2018-07-31T20:59:35.997Z,83.80
2018-07-31T21:02:03.540Z,85.70
2018-07-31T21:04:31.321Z,86.40
2018-07-31T21:06:58.862Z,87.10
2018-07-31T21:09:26.505Z,87.80
2018-07-31T21:14:21.527Z,89.70
2018-07-31T21:16:49.097Z,89.60
2018-07-31T21:21:44.227Z,89.30
2018-07-31T21:24:11.735Z,89.70
2018-07-31T21:26:39.280Z,90.10
2018-07-31T21:29:06.857Z,88.50
2018-07-31T21:31:34.496Z,89.90
2018-07-31T21:34:02.029Z,90.90
2018-07-31T21:36:29.543Z,91.20
2018-07-31T21:38:57.406Z,91.30
2018-07-31T21:41:25.027Z,91.40
2018-07-31T21:43:52.561Z,91.80
2018-07-31T21:46:20.119Z,91.50
2018-07-31T21:48:47.636Z,91.40
2018-07-31T21:53:42.644Z,91.70
2018-07-31T21:58:37.687Z,91.70
2018-07-31T22:01:08.147Z,91.50
2018-07-31T22:03:36.749Z,91.80
2018-07-31T22:06:04.900Z,92.40
2018-07-31T22:08:32.773Z,92.20
2018-07-31T22:11:01.071Z,92.20
2018-07-31T22:13:28.715Z,92.00
2018-07-31T22:15:56.351Z,92.10
2018-07-31T22:18:23.933Z,91.90
2018-07-31T22:20:51.650Z,92.10
2018-07-31T22:23:19.529Z,92.20
2018-07-31T22:25:47.056Z,92.30
2018-07-31T22:28:14.607Z,92.40
2018-07-31T22:30:42.112Z,92.20
2018-07-31T22:33:09.926Z,92.40
2018-07-31T22:35:37.400Z,92.40
2018-07-31T22:38:05.221Z,92.80
2018-07-31T22:40:32.773Z,93.10
2018-07-31T22:43:00.311Z,93.20
2018-07-31T22:45:28.117Z,93.30
2018-07-31T22:47:55.710Z,93.50
2018-07-31T22:50:23.305Z,93.80
2018-07-31T22:52:51.038Z,94.00
2018-07-31T22:55:18.613Z,93.90
2018-07-31T22:57:46.164Z,93.90
2018-07-31T23:02:41.324Z,94.90
2018-07-31T23:05:10.587Z,94.50
2018-07-31T23:07:38.243Z,94.40
2018-07-31T23:10:05.827Z,94.40
2018-07-31T23:12:33.756Z,94.60
2018-07-31T23:15:02.037Z,94.60
2018-07-31T23:17:29.982Z,94.90
2018-07-31T23:19:58.324Z,95.10
2018-07-31T23:22:42.623Z,95.30
2018-07-31T23:25:10.163Z,95.00
2018-07-31T23:27:37.762Z,95.40
2018-07-31T23:30:06.181Z,95.20
2018-07-31T23:32:33.891Z,95.50
2018-07-31T23:35:01.708Z,95.60
2018-07-31T23:37:29.763Z,96.20
2018-07-31T23:39:57.542Z,96.30
2018-07-31T23:42:25.116Z,96.00
2018-07-31T23:44:53.166Z,95.90
2018-07-31T23:47:20.739Z,95.60
2018-07-31T23:49:48.276Z,95.90
2018-07-31T23:52:15.767Z,96.20
2018-07-31T23:54:43.305Z,96.70
